sensor_id;sensor_type;location;lat;lon;timestamp;temperature;humidity
37222;DHT22;23119;51.842;-2.230;2023-04-10T00:02:25;11.00;99.90
37222;DHT22;23119;51.842;-2.230;2023-04-10T00:04:54;10.90;99.90
37222;DHT22;23119;51.842;-2.230;2023-04-10T00:07:22;11.00;99.90
37222;DHT22;23119;51.842;-2.230;2023-04-10T00:09:50;10.90;99.90
37222;DHT22;23119;51.842;-2.230;2023-04-10T00:12:16;11.00;99.90
37222;DHT22;23119;51.842;-2.230;2023-04-10T00:14:42;11.00;99.90
37222;DHT22;23119;51.842;-2.230;2023-04-10T00:17:08;11.00;99.90
37222;DHT22;23119;51.842;-2.230;2023-04-10T00:19:39;11.00;99.90
37222;DHT22;23119;51.842;-2.230;2023-04-10T00:22:07;11.00;99.90
37222;DHT22;23119;51.842;-2.230;2023-04-10T00:24:33;11.00;99.90
37222;DHT22;23119;51.842;-2.230;2023-04-10T00:26:59;11.00;99.90
37222;DHT22;23119;51.842;-2.230;2023-04-10T00:29:28;10.90;99.90
37222;DHT22;23119;51.842;-2.230;2023-04-10T00:32:01;10.90;99.90
37222;DHT22;23119;51.842;-2.230;2023-04-10T00:34:27;10.90;99.90
37222;DHT22;23119;51.842;-2.230;2023-04-10T00:36:55;10.90;99.90
37222;DHT22;23119;51.842;-2.230;2023-04-10T00:39:21;10.90;99.90
37222;DHT22;23119;51.842;-2.230;2023-04-10T00:41:51;10.90;99.90
37222;DHT22;23119;51.842;-2.230;2023-04-10T00:44:29;11.00;99.90
37222;DHT22;23119;51.842;-2.230;2023-04-10T00:47:20;11.00;99.90
37222;DHT22;23119;51.842;-2.230;2023-04-10T00:49:48;11.10;99.90
37222;DHT22;23119;51.842;-2.230;2023-04-10T00:52:15;11.00;99.90
37222;DHT22;23119;51.842;-2.230;2023-04-10T00:54:46;11.10;99.90
37222;DHT22;23119;51.842;-2.230;2023-04-10T00:57:21;11.00;99.90
37222;DHT22;23119;51.842;-2.230;2023-04-10T00:59:47;11.10;99.90
37222;DHT22;23119;51.842;-2.230;2023-04-10T01:02:15;11.10;99.90
37222;DHT22;23119;51.842;-2.230;2023-04-10T01:04:47;11.10;99.90
37222;DHT22;23119;51.842;-2.230;2023-04-10T01:10:28;11.00;99.90
37222;DHT22;23119;51.842;-2.230;2023-04-10T01:15:36;10.90;99.90
37222;DHT22;23119;51.842;-2.230;2023-04-10T01:21:07;10.90;99.90
37222;DHT22;23119;51.842;-2.230;2023-04-10T01:29:31;11.00;99.90
37222;DHT22;23119;51.842;-2.230;2023-04-10T01:32:11;11.10;99.90
37222;DHT22;23119;51.842;-2.230;2023-04-10T01:34:42;11.10;99.90
37222;DHT22;23119;51.842;-2.230;2023-04-10T01:37:17;10.80;99.90
37222;DHT22;23119;51.842;-2.230;2023-04-10T01:39:57;11.20;99.90
37222;DHT22;23119;51.842;-2.230;2023-04-10T01:42:27;11.20;99.90
37222;DHT22;23119;51.842;-2.230;2023-04-10T01:44:59;11.30;99.90
37222;DHT22;23119;51.842;-2.230;2023-04-10T01:47:26;11.30;99.90
37222;DHT22;23119;51.842;-2.230;2023-04-10T01:49:53;11.30;99.90
37222;DHT22;23119;51.842;-2.230;2023-04-10T01:52:39;11.30;99.90
37222;DHT22;23119;51.842;-2.230;2023-04-10T01:55:10;11.30;99.90
37222;DHT22;23119;51.842;-2.230;2023-04-10T01:57:39;11.30;99.90
37222;DHT22;23119;51.842;-2.230;2023-04-10T02:00:06;11.30;99.90
37222;DHT22;23119;51.842;-2.230;2023-04-10T02:02:35;11.40;99.90
37222;DHT22;23119;51.842;-2.230;2023-04-10T02:05:05;11.40;99.90
37222;DHT22;23119;51.842;-2.230;2023-04-10T02:08:14;11.40;99.90
37222;DHT22;23119;51.842;-2.230;2023-04-10T02:11:09;11.40;99.90
37222;DHT22;23119;51.842;-2.230;2023-04-10T02:13:37;11.40;99.90
37222;DHT22;23119;51.842;-2.230;2023-04-10T02:16:07;11.40;99.90
37222;DHT22;23119;51.842;-2.230;2023-04-10T02:18:38;11.40;99.90
37222;DHT22;23119;51.842;-2.230;2023-04-10T02:21:17;11.40;99.90
37222;DHT22;23119;51.842;-2.230;2023-04-10T02:23:44;11.40;99.90
37222;DHT22;23119;51.842;-2.230;2023-04-10T02:26:10;11.40;99.90
37222;DHT22;23119;51.842;-2.230;2023-04-10T02:28:38;11.40;99.90
37222;DHT22;23119;51.842;-2.230;2023-04-10T02:31:09;11.40;99.90
37222;DHT22;23119;51.842;-2.230;2023-04-10T02:33:39;11.50;99.90
37222;DHT22;23119;51.842;-2.230;2023-04-10T02:36:08;11.50;99.90
37222;DHT22;23119;51.842;-2.230;2023-04-10T02:38:34;11.50;99.90
37222;DHT22;23119;51.842;-2.230;2023-04-10T02:41:07;11.50;99.90
37222;DHT22;23119;51.842;-2.230;2023-04-10T02:43:36;11.50;99.90
37222;DHT22;23119;51.842;-2.230;2023-04-10T02:46:04;11.60;99.90
37222;DHT22;23119;51.842;-2.230;2023-04-10T02:48:32;11.60;99.90
37222;DHT22;23119;51.842;-2.230;2023-04-10T02:53:31;11.60;99.90
37222;DHT22;23119;51.842;-2.230;2023-04-10T02:55:57;11.60;99.90
37222;DHT22;23119;51.842;-2.230;2023-04-10T02:58:27;11.70;99.90
37222;DHT22;23119;51.842;-2.230;2023-04-10T03:00:55;11.70;99.90
37222;DHT22;23119;51.842;-2.230;2023-04-10T03:03:22;11.60;99.90
37222;DHT22;23119;51.842;-2.230;2023-04-10T03:05:50;11.60;99.90
37222;DHT22;23119;51.842;-2.230;2023-04-10T03:08:19;11.70;99.90
37222;DHT22;23119;51.842;-2.230;2023-04-10T03:10:49;11.70;99.90
37222;DHT22;23119;51.842;-2.230;2023-04-10T03:13:40;11.70;99.90
37222;DHT22;23119;51.842;-2.230;2023-04-10T03:16:06;11.70;99.90
37222;DHT22;23119;51.842;-2.230;2023-04-10T03:18:34;11.70;99.90
37222;DHT22;23119;51.842;-2.230;2023-04-10T03:21:14;11.70;99.90
37222;DHT22;23119;51.842;-2.230;2023-04-10T03:23:40;11.70;99.90
37222;DHT22;23119;51.842;-2.230;2023-04-10T03:26:06;11.70;99.90
37222;DHT22;23119;51.842;-2.230;2023-04-10T03:28:35;11.70;99.90
37222;DHT22;23119;51.842;-2.230;2023-04-10T03:31:04;11.70;99.90
37222;DHT22;23119;51.842;-2.230;2023-04-10T03:33:32;11.70;99.90
37222;DHT22;23119;51.842;-2.230;2023-04-10T03:35:58;11.70;99.90
37222;DHT22;23119;51.842;-2.230;2023-04-10T03:38:27;11.80;99.90
37222;DHT22;23119;51.842;-2.230;2023-04-10T03:41:00;11.80;99.90
37222;DHT22;23119;51.842;-2.230;2023-04-10T03:43:26;11.80;99.90
37222;DHT22;23119;51.842;-2.230;2023-04-10T03:45:57;11.80;99.90
37222;DHT22;23119;51.842;-2.230;2023-04-10T03:48:25;11.80;99.90
37222;DHT22;23119;51.842;-2.230;2023-04-10T03:50:54;11.80;99.90
37222;DHT22;23119;51.842;-2.230;2023-04-10T03:53:26;11.80;99.90
37222;DHT22;23119;51.842;-2.230;2023-04-10T03:55:57;10.00;99.90
37222;DHT22;23119;51.842;-2.230;2023-04-10T03:58:23;11.90;99.90
37222;DHT22;23119;51.842;-2.230;2023-04-10T04:00:49;11.80;99.90
37222;DHT22;23119;51.842;-2.230;2023-04-10T04:03:19;11.80;99.90
37222;DHT22;23119;51.842;-2.230;2023-04-10T04:05:54;11.90;99.90
37222;DHT22;23119;51.842;-2.230;2023-04-10T04:08:25;11.80;99.90
37222;DHT22;23119;51.842;-2.230;2023-04-10T04:11:00;11.90;99.90
37222;DHT22;23119;51.842;-2.230;2023-04-10T04:13:31;11.90;99.90
37222;DHT22;23119;51.842;-2.230;2023-04-10T04:16:00;11.90;99.90
37222;DHT22;23119;51.842;-2.230;2023-04-10T04:18:27;11.90;99.90
37222;DHT22;23119;51.842;-2.230;2023-04-10T04:21:00;11.90;99.90
37222;DHT22;23119;51.842;-2.230;2023-04-10T04:23:26;11.90;99.90
37222;DHT22;23119;51.842;-2.230;2023-04-10T04:26:02;11.90;99.90
37222;DHT22;23119;51.842;-2.230;2023-04-10T04:28:30;12.50;99.90
37222;DHT22;23119;51.842;-2.230;2023-04-10T04:30:58;11.90;99.90
37222;DHT22;23119;51.842;-2.230;2023-04-10T04:33:24;11.90;99.90
37222;DHT22;23119;51.842;-2.230;2023-04-10T04:35:53;11.90;99.90
37222;DHT22;23119;51.842;-2.230;2023-04-10T04:38:21;11.90;99.90
37222;DHT22;23119;51.842;-2.230;2023-04-10T04:40:49;11.90;99.90
37222;DHT22;23119;51.842;-2.230;2023-04-10T04:43:22;11.90;99.90
37222;DHT22;23119;51.842;-2.230;2023-04-10T04:45:50;11.90;99.90
37222;DHT22;23119;51.842;-2.230;2023-04-10T04:48:23;11.90;99.90
37222;DHT22;23119;51.842;-2.230;2023-04-10T04:50:49;11.90;99.90
37222;DHT22;23119;51.842;-2.230;2023-04-10T04:53:17;11.80;99.90
37222;DHT22;23119;51.842;-2.230;2023-04-10T04:55:45;11.80;99.90
37222;DHT22;23119;51.842;-2.230;2023-04-10T04:58:13;11.80;99.90
37222;DHT22;23119;51.842;-2.230;2023-04-10T05:00:59;11.80;99.90
37222;DHT22;23119;51.842;-2.230;2023-04-10T05:03:27;11.80;99.90
37222;DHT22;23119;51.842;-2.230;2023-04-10T05:06:11;11.80;99.90
37222;DHT22;23119;51.842;-2.230;2023-04-10T05:08:39;11.80;99.90
37222;DHT22;23119;51.842;-2.230;2023-04-10T05:11:10;11.80;99.90
37222;DHT22;23119;51.842;-2.230;2023-04-10T05:13:38;11.80;99.90
37222;DHT22;23119;51.842;-2.230;2023-04-10T05:16:09;11.80;99.90
37222;DHT22;23119;51.842;-2.230;2023-04-10T05:18:37;11.80;99.90
37222;DHT22;23119;51.842;-2.230;2023-04-10T05:21:03;11.80;99.90
37222;DHT22;23119;51.842;-2.230;2023-04-10T05:23:31;11.80;99.90
37222;DHT22;23119;51.842;-2.230;2023-04-10T05:25:59;11.80;99.90
37222;DHT22;23119;51.842;-2.230;2023-04-10T05:28:28;11.80;99.90
37222;DHT22;23119;51.842;-2.230;2023-04-10T05:30:53;11.80;99.90
37222;DHT22;23119;51.842;-2.230;2023-04-10T05:33:19;11.80;99.90
37222;DHT22;23119;51.842;-2.230;2023-04-10T05:36:02;11.80;99.90
37222;DHT22;23119;51.842;-2.230;2023-04-10T05:38:33;11.80;99.90
37222;DHT22;23119;51.842;-2.230;2023-04-10T05:40:59;11.80;99.90
37222;DHT22;23119;51.842;-2.230;2023-04-10T05:43:27;11.80;99.90
37222;DHT22;23119;51.842;-2.230;2023-04-10T05:45:52;11.80;99.90
37222;DHT22;23119;51.842;-2.230;2023-04-10T05:48:18;11.80;99.90
37222;DHT22;23119;51.842;-2.230;2023-04-10T05:50:48;11.80;99.90
37222;DHT22;23119;51.842;-2.230;2023-04-10T05:53:16;11.80;99.90
37222;DHT22;23119;51.842;-2.230;2023-04-10T05:55:42;11.80;99.90
37222;DHT22;23119;51.842;-2.230;2023-04-10T05:58:10;11.80;99.90
37222;DHT22;23119;51.842;-2.230;2023-04-10T06:00:36;11.80;99.90
37222;DHT22;23119;51.842;-2.230;2023-04-10T06:03:08;11.80;99.90
37222;DHT22;23119;51.842;-2.230;2023-04-10T06:05:34;12.50;99.90
37222;DHT22;23119;51.842;-2.230;2023-04-10T06:08:02;11.80;99.90
37222;DHT22;23119;51.842;-2.230;2023-04-10T06:10:31;11.70;99.90
37222;DHT22;23119;51.842;-2.230;2023-04-10T06:13:00;11.70;99.90
37222;DHT22;23119;51.842;-2.230;2023-04-10T06:15:26;11.70;99.90
37222;DHT22;23119;51.842;-2.230;2023-04-10T06:17:54;11.70;99.90
37222;DHT22;23119;51.842;-2.230;2023-04-10T06:20:20;11.70;99.90
37222;DHT22;23119;51.842;-2.230;2023-04-10T06:22:46;11.70;99.90
37222;DHT22;23119;51.842;-2.230;2023-04-10T06:25:16;11.70;99.90
37222;DHT22;23119;51.842;-2.230;2023-04-10T06:27:42;11.80;99.90
37222;DHT22;23119;51.842;-2.230;2023-04-10T06:30:10;11.80;99.90
37222;DHT22;23119;51.842;-2.230;2023-04-10T06:32:36;11.70;99.90
37222;DHT22;23119;51.842;-2.230;2023-04-10T06:35:06;11.80;99.90
37222;DHT22;23119;51.842;-2.230;2023-04-10T06:37:32;11.70;99.90
37222;DHT22;23119;51.842;-2.230;2023-04-10T06:40:10;11.70;99.90
37222;DHT22;23119;51.842;-2.230;2023-04-10T06:42:38;11.80;99.90
37222;DHT22;23119;51.842;-2.230;2023-04-10T06:45:06;11.80;99.90
37222;DHT22;23119;51.842;-2.230;2023-04-10T06:47:34;11.80;99.90
37222;DHT22;23119;51.842;-2.230;2023-04-10T06:50:02;11.80;99.90
37222;DHT22;23119;51.842;-2.230;2023-04-10T06:52:31;11.80;99.90
37222;DHT22;23119;51.842;-2.230;2023-04-10T06:54:59;11.90;99.90
37222;DHT22;23119;51.842;-2.230;2023-04-10T06:57:28;11.90;99.90
37222;DHT22;23119;51.842;-2.230;2023-04-10T06:59:54;11.80;99.90
37222;DHT22;23119;51.842;-2.230;2023-04-10T07:02:27;11.90;99.90
37222;DHT22;23119;51.842;-2.230;2023-04-10T07:04:52;11.90;99.90
37222;DHT22;23119;51.842;-2.230;2023-04-10T07:07:46;11.90;99.90
37222;DHT22;23119;51.842;-2.230;2023-04-10T07:10:22;11.90;99.90
37222;DHT22;23119;51.842;-2.230;2023-04-10T07:12:51;12.00;99.90
37222;DHT22;23119;51.842;-2.230;2023-04-10T07:15:19;12.00;99.90
37222;DHT22;23119;51.842;-2.230;2023-04-10T07:17:49;12.00;99.90
37222;DHT22;23119;51.842;-2.230;2023-04-10T07:20:22;12.00;99.90
37222;DHT22;23119;51.842;-2.230;2023-04-10T07:22:48;12.10;99.90
37222;DHT22;23119;51.842;-2.230;2023-04-10T07:25:16;12.10;99.90
37222;DHT22;23119;51.842;-2.230;2023-04-10T07:27:45;12.10;99.90
37222;DHT22;23119;51.842;-2.230;2023-04-10T07:30:13;12.10;99.90
37222;DHT22;23119;51.842;-2.230;2023-04-10T07:32:38;12.10;99.90
37222;DHT22;23119;51.842;-2.230;2023-04-10T07:35:32;12.10;99.90
37222;DHT22;23119;51.842;-2.230;2023-04-10T07:38:01;12.00;99.90
37222;DHT22;23119;51.842;-2.230;2023-04-10T07:40:29;12.10;99.90
37222;DHT22;23119;51.842;-2.230;2023-04-10T07:42:55;12.20;99.90
37222;DHT22;23119;51.842;-2.230;2023-04-10T07:45:21;12.20;99.90
37222;DHT22;23119;51.842;-2.230;2023-04-10T07:47:49;12.20;99.90
37222;DHT22;23119;51.842;-2.230;2023-04-10T07:50:18;12.20;99.90
37222;DHT22;23119;51.842;-2.230;2023-04-10T07:52:43;12.30;99.90
37222;DHT22;23119;51.842;-2.230;2023-04-10T07:55:09;12.30;99.90
37222;DHT22;23119;51.842;-2.230;2023-04-10T07:57:40;12.40;99.90
37222;DHT22;23119;51.842;-2.230;2023-04-10T08:00:07;12.40;99.90
37222;DHT22;23119;51.842;-2.230;2023-04-10T08:02:35;12.40;99.90
37222;DHT22;23119;51.842;-2.230;2023-04-10T08:05:07;12.40;99.90
37222;DHT22;23119;51.842;-2.230;2023-04-10T08:07:36;12.40;99.90
37222;DHT22;23119;51.842;-2.230;2023-04-10T08:10:05;12.40;99.90
37222;DHT22;23119;51.842;-2.230;2023-04-10T08:12:35;12.40;99.90
37222;DHT22;23119;51.842;-2.230;2023-04-10T08:15:09;12.40;99.90
37222;DHT22;23119;51.842;-2.230;2023-04-10T08:17:40;12.50;99.90
37222;DHT22;23119;51.842;-2.230;2023-04-10T08:20:12;12.40;99.90
37222;DHT22;23119;51.842;-2.230;2023-04-10T08:22:43;12.50;99.90
37222;DHT22;23119;51.842;-2.230;2023-04-10T08:25:11;12.50;99.90
37222;DHT22;23119;51.842;-2.230;2023-04-10T08:27:57;12.40;99.90
37222;DHT22;23119;51.842;-2.230;2023-04-10T08:30:24;12.50;99.90
37222;DHT22;23119;51.842;-2.230;2023-04-10T08:32:50;12.50;99.90
37222;DHT22;23119;51.842;-2.230;2023-04-10T08:35:16;12.50;99.90
37222;DHT22;23119;51.842;-2.230;2023-04-10T08:37:42;12.50;99.90
37222;DHT22;23119;51.842;-2.230;2023-04-10T08:40:08;12.60;99.90
37222;DHT22;23119;51.842;-2.230;2023-04-10T08:42:34;12.60;99.90
37222;DHT22;23119;51.842;-2.230;2023-04-10T08:45:00;12.60;99.90
37222;DHT22;23119;51.842;-2.230;2023-04-10T08:47:35;12.70;99.90
37222;DHT22;23119;51.842;-2.230;2023-04-10T08:50:05;12.70;99.90
37222;DHT22;23119;51.842;-2.230;2023-04-10T08:52:34;12.80;99.90
37222;DHT22;23119;51.842;-2.230;2023-04-10T08:55:07;12.90;99.90
37222;DHT22;23119;51.842;-2.230;2023-04-10T08:57:33;13.00;99.90
37222;DHT22;23119;51.842;-2.230;2023-04-10T09:00:02;13.10;99.90
37222;DHT22;23119;51.842;-2.230;2023-04-10T09:02:28;13.10;99.90
37222;DHT22;23119;51.842;-2.230;2023-04-10T09:04:54;13.20;99.90
37222;DHT22;23119;51.842;-2.230;2023-04-10T09:07:25;13.20;99.90
37222;DHT22;23119;51.842;-2.230;2023-04-10T09:09:55;13.20;99.90
37222;DHT22;23119;51.842;-2.230;2023-04-10T09:12:24;13.20;99.90
37222;DHT22;23119;51.842;-2.230;2023-04-10T09:14:58;13.20;99.90
37222;DHT22;23119;51.842;-2.230;2023-04-10T09:17:26;13.30;99.90
37222;DHT22;23119;51.842;-2.230;2023-04-10T09:19:54;13.40;99.90
37222;DHT22;23119;51.842;-2.230;2023-04-10T09:22:34;13.40;99.90
37222;DHT22;23119;51.842;-2.230;2023-04-10T09:25:03;13.60;99.90
37222;DHT22;23119;51.842;-2.230;2023-04-10T09:27:31;13.70;99.90
37222;DHT22;23119;51.842;-2.230;2023-04-10T09:30:00;13.70;99.90
37222;DHT22;23119;51.842;-2.230;2023-04-10T09:35:05;13.60;99.90
37222;DHT22;23119;51.842;-2.230;2023-04-10T09:37:32;13.60;99.90
37222;DHT22;23119;51.842;-2.230;2023-04-10T09:39:58;13.60;99.90
37222;DHT22;23119;51.842;-2.230;2023-04-10T09:42:36;13.50;99.90
37222;DHT22;23119;51.842;-2.230;2023-04-10T09:45:05;13.60;99.90
37222;DHT22;23119;51.842;-2.230;2023-04-10T09:47:33;13.70;99.90
37222;DHT22;23119;51.842;-2.230;2023-04-10T09:49:59;14.20;99.90
37222;DHT22;23119;51.842;-2.230;2023-04-10T09:52:34;14.90;99.90
37222;DHT22;23119;51.842;-2.230;2023-04-10T09:55:06;15.60;99.90
37222;DHT22;23119;51.842;-2.230;2023-04-10T09:57:34;16.00;99.90
37222;DHT22;23119;51.842;-2.230;2023-04-10T10:00:04;16.30;99.90
37222;DHT22;23119;51.842;-2.230;2023-04-10T10:02:35;16.60;99.90
37222;DHT22;23119;51.842;-2.230;2023-04-10T10:05:04;16.90;99.90
37222;DHT22;23119;51.842;-2.230;2023-04-10T10:07:30;17.20;99.90
37222;DHT22;23119;51.842;-2.230;2023-04-10T10:09:59;17.50;99.90
37222;DHT22;23119;51.842;-2.230;2023-04-10T10:12:59;17.70;99.90
37222;DHT22;23119;51.842;-2.230;2023-04-10T10:20:38;18.20;99.90
37222;DHT22;23119;51.842;-2.230;2023-04-10T10:23:09;18.30;99.90
37222;DHT22;23119;51.842;-2.230;2023-04-10T10:25:35;18.50;99.90
37222;DHT22;23119;51.842;-2.230;2023-04-10T10:28:03;18.70;99.90
37222;DHT22;23119;51.842;-2.230;2023-04-10T10:30:36;18.90;99.90
37222;DHT22;23119;51.842;-2.230;2023-04-10T10:33:05;19.00;99.90
37222;DHT22;23119;51.842;-2.230;2023-04-10T10:35:33;18.90;99.90
37222;DHT22;23119;51.842;-2.230;2023-04-10T10:38:00;19.90;99.90
37222;DHT22;23119;51.842;-2.230;2023-04-10T10:46:16;17.60;99.90
37222;DHT22;23119;51.842;-2.230;2023-04-10T10:48:58;17.50;99.90
37222;DHT22;23119;51.842;-2.230;2023-04-10T10:51:52;17.50;99.90
37222;DHT22;23119;51.842;-2.230;2023-04-10T10:54:34;17.60;99.90
37222;DHT22;23119;51.842;-2.230;2023-04-10T10:57:01;17.80;99.90
37222;DHT22;23119;51.842;-2.230;2023-04-10T11:02:18;18.10;99.90
37222;DHT22;23119;51.842;-2.230;2023-04-10T11:04:52;18.00;99.90
37222;DHT22;23119;51.842;-2.230;2023-04-10T11:13:24;17.70;99.90
37222;DHT22;23119;51.842;-2.230;2023-04-10T11:15:56;17.80;99.90
37222;DHT22;23119;51.842;-2.230;2023-04-10T11:21:19;18.10;99.90
37222;DHT22;23119;51.842;-2.230;2023-04-10T11:26:38;18.30;99.90
37222;DHT22;23119;51.842;-2.230;2023-04-10T11:31:47;18.60;99.90
37222;DHT22;23119;51.842;-2.230;2023-04-10T11:34:19;18.70;99.90
37222;DHT22;23119;51.842;-2.230;2023-04-10T11:36:47;18.90;99.90
37222;DHT22;23119;51.842;-2.230;2023-04-10T11:39:20;19.00;99.90
37222;DHT22;23119;51.842;-2.230;2023-04-10T11:41:50;18.90;99.90
37222;DHT22;23119;51.842;-2.230;2023-04-10T11:44:27;18.90;99.90
37222;DHT22;23119;51.842;-2.230;2023-04-10T11:46:54;19.00;99.90
37222;DHT22;23119;51.842;-2.230;2023-04-10T11:49:21;19.00;99.90
37222;DHT22;23119;51.842;-2.230;2023-04-10T11:51:51;19.10;99.90
37222;DHT22;23119;51.842;-2.230;2023-04-10T11:54:19;19.10;99.90
37222;DHT22;23119;51.842;-2.230;2023-04-10T11:57:06;18.90;99.90
37222;DHT22;23119;51.842;-2.230;2023-04-10T11:59:37;18.70;99.90
37222;DHT22;23119;51.842;-2.230;2023-04-10T12:02:11;18.50;99.90
37222;DHT22;23119;51.842;-2.230;2023-04-10T12:04:41;18.10;99.90
37222;DHT22;23119;51.842;-2.230;2023-04-10T12:07:08;17.80;99.90
37222;DHT22;23119;51.842;-2.230;2023-04-10T12:09:34;17.40;99.90
37222;DHT22;23119;51.842;-2.230;2023-04-10T12:12:07;17.20;99.90
37222;DHT22;23119;51.842;-2.230;2023-04-10T12:14:38;17.00;99.90
37222;DHT22;23119;51.842;-2.230;2023-04-10T12:17:08;17.00;99.90
37222;DHT22;23119;51.842;-2.230;2023-04-10T12:19:36;17.10;99.90
37222;DHT22;23119;51.842;-2.230;2023-04-10T12:22:02;17.20;99.90
37222;DHT22;23119;51.842;-2.230;2023-04-10T12:24:48;17.20;99.90
37222;DHT22;23119;51.842;-2.230;2023-04-10T12:27:20;17.40;99.90
37222;DHT22;23119;51.842;-2.230;2023-04-10T12:29:48;17.40;99.90
37222;DHT22;23119;51.842;-2.230;2023-04-10T12:32:18;17.60;99.90
37222;DHT22;23119;51.842;-2.230;2023-04-10T12:34:51;17.60;99.90
37222;DHT22;23119;51.842;-2.230;2023-04-10T12:37:20;17.90;99.90
37222;DHT22;23119;51.842;-2.230;2023-04-10T12:39:45;18.10;99.90
37222;DHT22;23119;51.842;-2.230;2023-04-10T12:44:59;18.20;99.60
37222;DHT22;23119;51.842;-2.230;2023-04-10T12:47:28;18.20;99.90
37222;DHT22;23119;51.842;-2.230;2023-04-10T12:52:35;18.20;99.20
37222;DHT22;23119;51.842;-2.230;2023-04-10T12:57:48;18.00;98.90
37222;DHT22;23119;51.842;-2.230;2023-04-10T13:00:30;17.90;98.80
37222;DHT22;23119;51.842;-2.230;2023-04-10T13:03:02;17.70;98.20
37222;DHT22;23119;51.842;-2.230;2023-04-10T13:05:27;17.50;98.30
37222;DHT22;23119;51.842;-2.230;2023-04-10T13:07:54;17.30;98.60
37222;DHT22;23119;51.842;-2.230;2023-04-10T13:10:28;17.30;98.20
37222;DHT22;23119;51.842;-2.230;2023-04-10T13:12:57;17.10;95.80
37222;DHT22;23119;51.842;-2.230;2023-04-10T13:15:26;17.00;96.50
37222;DHT22;23119;51.842;-2.230;2023-04-10T13:17:54;16.90;96.30
37222;DHT22;23119;51.842;-2.230;2023-04-10T13:20:21;16.90;96.90
37222;DHT22;23119;51.842;-2.230;2023-04-10T13:22:58;16.90;97.10
37222;DHT22;23119;51.842;-2.230;2023-04-10T13:25:33;16.90;97.10
37222;DHT22;23119;51.842;-2.230;2023-04-10T13:28:03;16.90;97.20
37222;DHT22;23119;51.842;-2.230;2023-04-10T13:30:44;17.00;97.30
37222;DHT22;23119;51.842;-2.230;2023-04-10T13:33:13;17.20;97.20
37222;DHT22;23119;51.842;-2.230;2023-04-10T13:35:39;17.40;97.10
37222;DHT22;23119;51.842;-2.230;2023-04-10T13:38:05;17.60;96.30
37222;DHT22;23119;51.842;-2.230;2023-04-10T13:40:31;17.60;96.40
37222;DHT22;23119;51.842;-2.230;2023-04-10T13:43:00;17.70;96.20
37222;DHT22;23119;51.842;-2.230;2023-04-10T13:45:33;17.70;95.90
37222;DHT22;23119;51.842;-2.230;2023-04-10T13:48:02;17.60;95.90
37222;DHT22;23119;51.842;-2.230;2023-04-10T13:50:30;17.70;96.10
37222;DHT22;23119;51.842;-2.230;2023-04-10T13:52:59;17.60;95.10
37222;DHT22;23119;51.842;-2.230;2023-04-10T13:55:27;17.50;95.10
37222;DHT22;23119;51.842;-2.230;2023-04-10T13:57:59;17.60;95.50
37222;DHT22;23119;51.842;-2.230;2023-04-10T14:00:28;17.50;94.60
37222;DHT22;23119;51.842;-2.230;2023-04-10T14:02:56;17.40;95.00
37222;DHT22;23119;51.842;-2.230;2023-04-10T14:05:22;17.20;94.60
37222;DHT22;23119;51.842;-2.230;2023-04-10T14:07:50;17.00;94.80
37222;DHT22;23119;51.842;-2.230;2023-04-10T14:10:23;17.00;95.10
37222;DHT22;23119;51.842;-2.230;2023-04-10T14:12:55;17.10;94.50
37222;DHT22;23119;51.842;-2.230;2023-04-10T14:15:21;17.00;94.80
37222;DHT22;23119;51.842;-2.230;2023-04-10T14:17:47;17.00;95.10
37222;DHT22;23119;51.842;-2.230;2023-04-10T14:20:13;17.00;95.40
37222;DHT22;23119;51.842;-2.230;2023-04-10T14:22:38;17.10;95.40
37222;DHT22;23119;51.842;-2.230;2023-04-10T14:25:07;17.10;95.80
37222;DHT22;23119;51.842;-2.230;2023-04-10T14:27:35;17.10;94.60
37222;DHT22;23119;51.842;-2.230;2023-04-10T14:30:04;17.10;94.90
37222;DHT22;23119;51.842;-2.230;2023-04-10T14:32:30;17.10;94.90
37222;DHT22;23119;51.842;-2.230;2023-04-10T14:34:59;17.10;94.80
37222;DHT22;23119;51.842;-2.230;2023-04-10T14:37:30;17.10;94.60
37222;DHT22;23119;51.842;-2.230;2023-04-10T14:39:59;17.20;94.80
37222;DHT22;23119;51.842;-2.230;2023-04-10T14:42:30;17.20;94.70
37222;DHT22;23119;51.842;-2.230;2023-04-10T14:44:58;17.20;94.80
37222;DHT22;23119;51.842;-2.230;2023-04-10T14:47:29;17.20;94.70
37222;DHT22;23119;51.842;-2.230;2023-04-10T14:50:09;17.30;94.60
37222;DHT22;23119;51.842;-2.230;2023-04-10T14:52:37;17.30;94.60
37222;DHT22;23119;51.842;-2.230;2023-04-10T14:55:06;17.30;94.80
37222;DHT22;23119;51.842;-2.230;2023-04-10T14:57:32;17.20;94.50
37222;DHT22;23119;51.842;-2.230;2023-04-10T15:00:12;17.20;94.50
37222;DHT22;23119;51.842;-2.230;2023-04-10T15:02:42;17.20;93.90
37222;DHT22;23119;51.842;-2.230;2023-04-10T15:05:09;17.10;93.20
37222;DHT22;23119;51.842;-2.230;2023-04-10T15:07:38;16.90;93.10
37222;DHT22;23119;51.842;-2.230;2023-04-10T15:10:04;16.80;92.70
37222;DHT22;23119;51.842;-2.230;2023-04-10T15:12:32;16.70;92.90
37222;DHT22;23119;51.842;-2.230;2023-04-10T15:14:58;16.60;93.10
37222;DHT22;23119;51.842;-2.230;2023-04-10T15:17:29;16.60;93.40
37222;DHT22;23119;51.842;-2.230;2023-04-10T15:19:58;16.40;93.10
37222;DHT22;23119;51.842;-2.230;2023-04-10T15:22:29;16.20;93.70
37222;DHT22;23119;51.842;-2.230;2023-04-10T15:24:59;16.10;94.00
37222;DHT22;23119;51.842;-2.230;2023-04-10T15:27:28;15.90;93.70
37222;DHT22;23119;51.842;-2.230;2023-04-10T15:29:54;15.90;94.10
37222;DHT22;23119;51.842;-2.230;2023-04-10T15:32:22;15.80;94.00
37222;DHT22;23119;51.842;-2.230;2023-04-10T15:34:48;15.80;94.10
37222;DHT22;23119;51.842;-2.230;2023-04-10T15:37:14;15.80;94.30
37222;DHT22;23119;51.842;-2.230;2023-04-10T15:39:42;16.00;94.60
37222;DHT22;23119;51.842;-2.230;2023-04-10T15:42:07;16.20;94.80
37222;DHT22;23119;51.842;-2.230;2023-04-10T15:44:33;16.20;95.10
37222;DHT22;23119;51.842;-2.230;2023-04-10T15:47:01;16.30;95.40
37222;DHT22;23119;51.842;-2.230;2023-04-10T15:49:27;16.20;95.50
37222;DHT22;23119;51.842;-2.230;2023-04-10T15:51:57;16.10;95.60
37222;DHT22;23119;51.842;-2.230;2023-04-10T15:54:23;15.90;95.60
37222;DHT22;23119;51.842;-2.230;2023-04-10T15:56:51;15.80;95.70
37222;DHT22;23119;51.842;-2.230;2023-04-10T15:59:18;15.60;95.80
37222;DHT22;23119;51.842;-2.230;2023-04-10T16:01:43;15.40;95.90
37222;DHT22;23119;51.842;-2.230;2023-04-10T16:04:09;15.30;96.20
37222;DHT22;23119;51.842;-2.230;2023-04-10T16:06:37;15.00;96.50
37222;DHT22;23119;51.842;-2.230;2023-04-10T16:09:03;14.90;96.80
37222;DHT22;23119;51.842;-2.230;2023-04-10T16:11:34;14.80;97.00
37222;DHT22;23119;51.842;-2.230;2023-04-10T16:13:59;14.60;97.30
37222;DHT22;23119;51.842;-2.230;2023-04-10T16:16:25;14.50;97.70
37222;DHT22;23119;51.842;-2.230;2023-04-10T16:18:53;14.40;98.10
37222;DHT22;23119;51.842;-2.230;2023-04-10T16:21:27;14.40;98.10
37222;DHT22;23119;51.842;-2.230;2023-04-10T16:23:58;14.40;98.10
37222;DHT22;23119;51.842;-2.230;2023-04-10T16:26:28;14.50;98.10
37222;DHT22;23119;51.842;-2.230;2023-04-10T16:28:57;14.60;98.10